x

8413320 - Bar Harbor, Me (atgm1) Weather Station

2:30 - Sun 25th Sep 2016 All times are EDT. -4 hours from GMT.

  • Wind
    16mph, 23mph gusts
  • Sea Temp 58°f
  • Luft Temp 55°f
  • Sea Pressure 1014.5mb
  • 8413320 - Bar Harbor, Me
  • 8413320 - Bar Harbor, Me

More Historic Weather Station data

Upgrade to MSW Pro to gain access to the past 30 days of data for over 8000 Wavebouys and Weather Stations around the globe.

Join Pro

Comparision Forecast

View Surf forecast
   
So 09/25 2:30 16 23 mph 1014.5mb 58f 55f
2:24 21 24 mph 1014.4mb 58f 55f
2:18 14 21 mph 1014.5mb 58f 55f
2:12 20 23 mph 1014.4mb 58f 54f
2:06 18 23 mph 1014.5mb 58f 54f
2:00 18 24 mph 1014.4mb 58f 54f
1:54 23 26 mph 1014.4mb 58f 53f
1:48 22 25 mph 1014.5mb 58f 54f
1:42 18 24 mph 1014.6mb 58f 53f
1:36 17 22 mph 1014.6mb 58f 53f
1:30 20 25 mph 1014.7mb 58f 53f
1:24 17 21 mph 1014.8mb 58f 53f
1:18 15 20 mph 1014.8mb 58f 53f
1:12 14 22 mph 1014.9mb 58f 53f
1:06 14 18 mph 1015mb 58f 53f
1:00 13 18 mph 1015mb 58f 53f
12:54 14 18 mph 1015.1mb 58f 53f
12:48 11 17 mph 1015.1mb 58f 53f
12:42 14 22 mph 1015mb 58f 53f
12:36 17 21 mph 1014.9mb 57f 53f
12:30 18 24 mph 1015mb 57f 53f
12:24 18 21 mph 1014.9mb 57f 53f
12:18 16 25 mph 1015.1mb 57f 52f
12:12 20 22 mph 1014.9mb 57f 52f
12:06 16 24 mph 1015.1mb 57f 52f
12:00 18 23 mph 1015.1mb 57f 52f
11:54 17 23 mph 1015.1mb 57f 52f
11:48 17 22 mph 1015.1mb 57f 52f
11:42 15 25 mph 1015.2mb 57f 52f
11:36 15 25 mph 1015.2mb 57f 52f
11:30 18 23 mph 1015.1mb 57f 51f
11:24 18 24 mph 1015.2mb 57f 52f
11:18 17 23 mph 1015.1mb 57f 52f
11:12 20 25 mph 1015mb 57f 51f
11:06 16 22 mph 1015.2mb 57f 52f
11:00 18 26 mph 1015.2mb 57f 51f
10:54 20 29 mph 1015.2mb 57f 51f
10:48 18 24 mph 1015.1mb 56f 51f
10:42 21 26 mph 1015.1mb 56f 51f
10:36 20 24 mph 1015.1mb 56f 51f
10:30 17 26 mph 1015.3mb 56f 51f
10:24 18 24 mph 1015.1mb 56f 51f
10:18 18 25 mph 1015.3mb 56f 51f
10:12 21 25 mph 1015.2mb 56f 50f
10:06 18 24 mph 1015.2mb 56f 50f
10:00 15 20 mph 1015.3mb 56f 50f
9:54 17 21 mph 1015.3mb 56f 50f
9:48 20 24 mph 1015.3mb 56f 50f
9:42 15 23 mph 1015.3mb 56f 50f
9:36 15 23 mph 1015.3mb 56f 50f
9:30 18 25 mph 1015.2mb 56f 50f
9:24 20 24 mph 1015.2mb 56f 50f
9:18 15 20 mph 1015.3mb 56f 49f
9:12 15 21 mph 1015.3mb 56f 49f
9:06 18 22 mph 1015.3mb 56f 49f
9:00 15 18 mph 1015.4mb 56f 49f
8:54 16 20 mph 1015.4mb 56f 49f
8:48 15 18 mph 1015.4mb 56f 48f
8:42 16 20 mph 1015.4mb 56f 48f
8:36 16 20 mph 1015.4mb 56f 48f
8:30 17 21 mph 1015.3mb 56f 48f
8:24 18 23 mph 1015.2mb 56f 48f
8:18 16 21 mph 1015.2mb 56f 48f
8:12 16 20 mph 1015.1mb 56f 47f
8:06 16 21 mph 1015.1mb 56f 47f
8:00 15 21 mph 1015.1mb 56f 47f
7:54 14 20 mph 1015.1mb 56f 47f
7:48 14 17 mph 1015.1mb 56f 46f
7:42 15 20 mph 1015.1mb 56f 46f
7:36 14 17 mph 1015.1mb 56f 46f
7:30 14 16 mph 1015.1mb 56f 46f
7:24 14 17 mph 1015.1mb 56f 46f
7:18 11 15 mph 1015.1mb 56f 45f
7:12 14 16 mph 1015.1mb 56f 46f
7:06 14 17 mph 1015mb 56f 45f
7:00 13 16 mph 1015mb 56f 45f
6:54 11 16 mph 1015.1mb 56f 45f
6:48 10 15 mph 1015.1mb 56f 45f
6:42 11 15 mph 1015mb 56f 45f
6:36 13 17 mph 1015mb 56f 45f
6:30 14 17 mph 1015.1mb 56f 45f
6:24 10 14 mph 1015.1mb 57f 45f
6:18 13 15 mph 1015.1mb 57f 45f
6:12 13 15 mph 1015.1mb 57f 45f
6:06 11 14 mph 1015.1mb 57f 45f
6:00 13 15 mph 1015.1mb 57f 45f
5:54 11 15 mph 1015mb 57f 45f
5:48 13 16 mph 1015mb 57f 44f
5:42 10 14 mph 1015mb 57f 45f
5:36 10 14 mph 1015mb 57f 44f
5:30 9 14 mph 1014.9mb 57f 45f
5:24 10 16 mph 1015mb 57f 45f
5:18 11 15 mph 1014.9mb 57f 45f
5:12 13 17 mph 1014.8mb 57f 45f
5:06 13 16 mph 1014.8mb 57f 46f
5:00 13 15 mph 1014.9mb 57f 46f
4:54 11 16 mph 1014.8mb 57f 45f
4:48 11 16 mph 1014.9mb 57f 46f
4:42 14 17 mph 1014.9mb 57f 46f
4:36 14 18 mph 1014.9mb 57f 46f
4:30 10 16 mph 1015mb 57f 45f
4:24 11 17 mph 1014.9mb 57f 46f
4:18 10 15 mph 1014.9mb 57f 46f
4:12 9 15 mph 1014.9mb 57f 46f
4:06 7 11 mph 1014.8mb 57f 46f
4:00 8 10 mph 1014.8mb 57f 46f
3:54 7 10 mph 1014.9mb 57f 45f
3:48 6 9 mph 1014.9mb 57f 45f
3:42 6 8 mph 1014.9mb 57f 46f
3:36 5 11 mph 1014.9mb 57f 46f
3:30 8 11 mph 1014.8mb 57f 46f
3:24 9 13 mph 1014.8mb 57f 47f
3:18 11 14 mph 1014.8mb 57f 47f
3:12 13 14 mph 1014.7mb 58f 48f
3:06 11 15 mph 1014.7mb 58f 47f
3:00 13 14 mph 1014.8mb 58f 48f
2:54 11 15 mph 1014.8mb 58f 48f
2:48 14 16 mph 1014.8mb 58f -
2:42 14 20 mph 1014.8mb 58f -
2:36 14 16 mph 1014.8mb 58f -
2:30 14 16 mph 1015mb 58f 48f
2:24 14 16 mph 1015mb 58f 48f
2:18 11 15 mph 1015.2mb 58f 48f
2:12 13 15 mph 1015.1mb 58f 47f
2:06 13 14 mph 1015.2mb 58f 47f
2:00 10 13 mph 1015.2mb 58f 47f
1:54 9 15 mph 1015.3mb 58f 47f
1:48 14 16 mph - - -
1:42 10 13 mph - - -
1:36 10 13 mph - - -
1:30 9 13 mph 1015.4mb 58f 48f
1:24 10 14 mph 1015.4mb 58f 49f
1:18 9 14 mph 1015.4mb 58f 49f
1:12 8 11 mph 1015.4mb 58f 49f
1:06 10 15 mph 1015.4mb 58f 49f
1:00 11 14 mph 1015.4mb 58f 49f
12:54 11 15 mph 1015.4mb 58f 49f
12:48 11 17 mph 1015.3mb 58f 49f
12:42 11 15 mph 1015.3mb 58f 50f
12:36 10 20 mph 1015.3mb 58f 50f
12:30 13 15 mph 1015.3mb 58f 50f
12:24 9 21 mph 1015.3mb 58f 51f
12:18 9 14 mph 1015.3mb 58f 51f
12:12 7 11 mph 1015.3mb 58f 51f
12:06 6 15 mph 1015.2mb 58f 51f
12:00 10 16 mph 1015.3mb 58f 51f
Sa 09/24 11:54 8 15 mph 1015.4mb 58f 51f
11:48 7 14 mph 1015.4mb 58f 51f
11:42 8 15 mph 1015.4mb 58f 51f
11:36 9 17 mph 1015.5mb 58f 51f
11:30 10 15 mph 1015.5mb 58f 51f
11:24 11 18 mph 1015.4mb 58f 51f
11:18 11 17 mph 1015.4mb 58f 52f
11:12 9 17 mph 1015.4mb 58f 52f
11:06 14 18 mph 1015.2mb 58f 52f
11:00 14 18 mph 1015.2mb 58f 52f
10:54 13 16 mph 1015.1mb 58f 52f
10:48 13 16 mph 1015mb 58f 52f
10:42 15 17 mph 1014.8mb 58f 53f
10:36 14 17 mph 1014.7mb 58f 53f
10:30 14 16 mph 1014.7mb 58f 53f
10:24 15 18 mph 1014.6mb 58f 53f
10:18 14 16 mph 1014.7mb 58f 53f
10:12 13 16 mph 1014.7mb 58f 53f
10:06 13 14 mph 1014.6mb 58f 53f
10:00 13 16 mph 1014.6mb 58f 53f
9:54 14 16 mph 1014.5mb 58f 54f
9:48 10 13 mph 1014.5mb 58f 53f
9:42 9 11 mph 1014.4mb 58f 53f
9:36 10 15 mph 1014.5mb 58f 54f
9:30 13 16 mph 1014.4mb 58f -
9:24 14 17 mph 1014.4mb 58f -
9:18 14 18 mph 1014.4mb 58f 55f
9:12 15 17 mph 1014.3mb 58f 55f
9:06 13 16 mph 1014.4mb 58f 55f
9:00 11 14 mph 1014.4mb 58f 55f
8:54 11 14 mph 1014.4mb 58f 55f
8:48 10 13 mph 1014.5mb 58f 55f
8:42 11 14 mph 1014.5mb 58f 55f
8:36 11 14 mph 1014.5mb 58f 55f
8:30 11 15 mph 1014.6mb 58f 55f
8:24 10 14 mph 1014.6mb 58f 55f
8:18 9 13 mph 1014.6mb 58f 55f
8:12 9 13 mph 1014.6mb 58f 55f
8:06 8 13 mph 1014.6mb 58f 55f
8:00 10 14 mph 1014.6mb 58f 55f
7:54 8 11 mph 1014.6mb 58f 55f
7:48 8 11 mph 1014.6mb 58f -
7:42 7 9 mph 1014.5mb 58f -
7:36 6 9 mph 1014.5mb 58f -
7:30 8 9 mph 1014.5mb 58f 56f
7:24 7 10 mph 1014.4mb 58f 56f
7:18 7 11 mph 1014.3mb 58f 56f
7:12 7 10 mph 1014.3mb 58f 56f
7:06 6 10 mph 1014.3mb 58f 56f
7:00  -  mph 1014.3mb 58f 56f
6:54  -  mph 1014.2mb 58f 56f
6:48 6 9 mph 1014.2mb 58f -
6:42 6 11 mph 1014.2mb 59f -
6:36 9 11 mph 1014.1mb 59f -
6:30 9 11 mph - 59f -
6:24 9 13 mph - 59f -
6:18 9 13 mph 1014mb 59f 58f
6:12 9 11 mph 1014mb 59f 58f
6:06 8 11 mph 1013.9mb 59f 58f
6:00 11 14 mph 1013.9mb 59f 58f
5:54 11 13 mph 1013.9mb 59f 58f
5:48 11 13 mph 1013.9mb 59f 59f
5:42 9 11 mph 1013.9mb 59f 58f
5:36 6 11 mph 1013.9mb 59f 58f
5:30 8 13 mph 1013.9mb 59f 58f
5:24 11 16 mph 1013.8mb 59f 59f
5:18 14 17 mph 1013.8mb 59f 59f
5:12 14 20 mph 1013.9mb 59f 59f
5:06 16 22 mph 1013.9mb 59f 59f
5:00 16 26 mph 1013.9mb 59f 59f
4:54 23 30 mph 1013.8mb 58f 59f
4:48 21 29 mph 1013.7mb 58f 59f
4:42 14 22 mph 1013.8mb 59f 59f
4:36 13 16 mph 1013.7mb 59f 60f
4:30 14 18 mph 1013.8mb 59f 59f
4:24 18 23 mph 1013.8mb 59f 59f
4:18 15 20 mph 1013.8mb 58f 59f
4:12 17 21 mph 1013.7mb 58f 59f
4:06 21 24 mph 1013.8mb 58f 59f
4:00 15 21 mph 1013.8mb 58f 59f
3:54 16 21 mph 1013.7mb 58f 59f
3:48 18 26 mph 1013.7mb 58f 59f
3:42 22 25 mph 1013.6mb 58f 59f
3:36 18 20 mph 1013.7mb 58f 59f
3:30 14 17 mph 1014mb 58f 58f
3:24 14 21 mph 1014mb 58f 58f
3:18 16 20 mph 1013.9mb 58f 59f
3:12 15 23 mph 1014mb 58f 59f
3:06 16 20 mph 1014mb 58f 58f
3:00 13 17 mph 1014mb 58f 58f
2:54 14 18 mph 1014.1mb 58f 58f
2:48 16 21 mph 1014.2mb 58f 58f
2:42 14 18 mph 1014.3mb 58f 58f
2:36 14 20 mph 1014.4mb 58f 58f
2:30 14 18 mph 1014.4mb 58f 58f
2:24 14 20 mph 1014.4mb 58f 58f
2:18 15 20 mph 1014.5mb 58f 58f
2:12 13 17 mph 1014.5mb 58f 58f
2:06 14 17 mph 1014.4mb 58f 58f
2:00 15 20 mph 1014.5mb 58f 57f
1:54 15 21 mph 1014.5mb 58f 57f
1:48 21 24 mph 1014.5mb 58f 57f
1:42 16 22 mph 1014.7mb 58f 57f
1:36 15 22 mph 1014.8mb 58f 57f
1:30 18 24 mph 1014.8mb 58f 57f
1:24 15 22 mph 1014.9mb 58f 57f
1:18 17 24 mph 1014.9mb 58f 57f
1:12 15 22 mph 1015.1mb 58f 57f
1:06 14 20 mph 1015.2mb 58f 57f
1:00 14 20 mph 1015.3mb 58f 57f
12:54 15 26 mph 1015.3mb 58f 56f
12:48 16 23 mph 1015.3mb 58f 56f
12:42 14 18 mph 1015.4mb 58f 56f
12:36 11 26 mph 1015.6mb 58f 56f
12:30 17 21 mph 1015.5mb 58f 56f
12:24 10 17 mph 1015.8mb 58f 56f
12:18 14 21 mph 1015.8mb 58f 56f
12:12 10 14 mph 1015.9mb 58f 55f
12:06 10 14 mph 1016.1mb 58f 55f
12:00 10 16 mph 1016.2mb 58f 55f
11:54 10 18 mph 1016.3mb 58f 55f
11:48 15 23 mph 1016.3mb 58f 55f
11:42 16 22 mph 1016.3mb 58f 55f
11:36 18 24 mph 1016.4mb 58f 55f
11:30 11 17 mph 1016.5mb 58f 54f
11:24 11 16 mph 1016.7mb 58f 54f
11:18 11 18 mph 1016.8mb 58f 54f
11:12 10 18 mph 1016.8mb 58f 54f
11:06 15 24 mph 1016.9mb 58f 54f
11:00 16 24 mph 1016.9mb 58f 54f
10:54 11 16 mph 1017mb 58f 53f
10:48 13 17 mph 1016.9mb 58f 53f
10:42 13 18 mph 1016.9mb 57f 53f
10:36 13 18 mph 1016.9mb 57f 53f
10:30 14 17 mph 1017mb 57f 53f
10:24 11 16 mph 1017mb 57f 53f
10:18 15 17 mph 1017mb 57f 52f
10:12 14 17 mph 1017mb 57f 52f
10:06 13 20 mph 1017mb 57f 52f
10:00 14 17 mph 1017.1mb 57f 51f
9:54 13 15 mph 1017.2mb 57f 51f
9:48 13 15 mph 1017.2mb 57f 51f
9:42 14 17 mph 1017.2mb 57f 51f
9:36 15 20 mph 1017.1mb 57f 51f
9:30 16 18 mph 1017.2mb 57f 50f
9:24 14 21 mph 1017.2mb 57f 50f
9:18 14 20 mph 1017.2mb 57f 50f
9:12 15 20 mph 1017.3mb 57f 50f
9:06 15 18 mph 1017.3mb 57f 50f
9:00 14 17 mph 1017.3mb 57f 50f
8:54 14 20 mph 1017.3mb 57f 50f
8:48 15 18 mph 1017.3mb 57f 50f
8:42 15 20 mph 1017.4mb 57f 50f
8:36 14 17 mph 1017.5mb 57f 50f
8:30 14 18 mph 1017.5mb 57f 50f
8:24 14 17 mph 1017.5mb 57f 50f
8:18 14 15 mph 1017.6mb 57f 49f
8:12 10 14 mph 1017.6mb 57f 49f
8:06 10 14 mph 1017.6mb 57f 49f
8:00 9 13 mph 1017.6mb 57f 49f
7:54 9 13 mph 1017.6mb 57f 49f
7:48 9 13 mph 1017.7mb 57f 49f
7:42 9 13 mph 1017.7mb 57f 49f
7:36 8 11 mph 1017.8mb 57f 49f
7:30 7 10 mph 1017.8mb 57f 49f
7:24 7 9 mph 1017.9mb 57f 49f
7:18 7 10 mph 1018mb 57f 49f
7:12 9 10 mph 1018.1mb 57f 49f
7:06 8 11 mph 1018.1mb 57f 49f
7:00 9 10 mph 1018.1mb 57f 49f
6:54 8 9 mph 1018mb 57f 48f
6:48 7 9 mph 1018mb 58f 48f
6:42 7 9 mph 1017.8mb 57f 48f
6:36 7 9 mph 1017.8mb 57f 48f
6:30 7 9 mph 1017.7mb 57f 49f
6:24 8 10 mph 1017.6mb 57f 48f
6:18 8 10 mph 1017.4mb 57f 49f
6:12 8 10 mph 1017.4mb 57f 49f
6:06 5 9 mph 1017.5mb 57f 48f
6:00 7 10 mph 1017.5mb 57f 48f
5:54 7 8 mph 1017.5mb 57f 48f
5:48 3 7 mph 1017.6mb 57f 48f
5:42 7 10 mph 1017.5mb 57f 48f
5:36 10 11 mph 1017.2mb 58f 49f
5:30 9 11 mph 1017.2mb 58f 49f
5:24 8 11 mph 1017.2mb 58f 48f
5:18 7 10 mph 1017.1mb 58f 49f
5:12 7 11 mph 1017mb 58f 49f
5:06 8 10 mph 1017mb 58f 48f
5:00 6 8 mph 1016.8mb 58f 49f
4:54 5 7 mph 1016.8mb 58f 49f
4:48 5 6 mph 1016.7mb 58f 49f
4:42 5 6 mph 1016.6mb 57f 48f
4:36 2 5 mph 1016.4mb 58f 48f
4:30 2 6 mph 1016.1mb 58f 49f
4:24 5 6 mph 1016.2mb 58f 49f
4:18 3 5 mph 1016.2mb 58f 49f
4:12 1 3 mph 1016.1mb 58f 49f
4:06 2 5 mph 1016mb 58f 49f
4:00 3 6 mph 1016.2mb 58f 49f
3:54 5 6 mph 1016.4mb 58f 49f
3:48 5 6 mph 1016.6mb 58f 49f
3:42 3 6 mph 1016.7mb 58f 49f
3:36 5 9 mph 1016.9mb 58f 50f
3:30 7 11 mph 1016.9mb 58f 50f
3:24 9 14 mph 1017mb 58f 50f
3:18 13 14 mph 1017.1mb 58f 50f
3:12 11 14 mph 1017mb 58f 51f
3:06 13 14 mph 1016.9mb 58f 51f
3:00 9 10 mph 1016.9mb 58f 51f
2:54 8 10 mph 1016.9mb 58f 50f
2:48 9 10 mph 1016.8mb 58f 50f
2:42 7 9 mph 1016.8mb 58f 50f
2:36 7 9 mph 1016.7mb 58f 50f
2:30 8 10 mph 1016.7mb 58f 50f
2:24 7 10 mph 1016.8mb 58f 50f
2:18 6 8 mph 1016.8mb 58f 50f
2:12 6 10 mph 1016.7mb 58f 51f
2:06 9 11 mph 1016.7mb 58f 51f
2:00 9 14 mph 1016.7mb 58f 51f
1:54 11 13 mph 1017mb 58f 51f
1:48 9 11 mph 1017mb 58f 51f
1:42 9 11 mph 1016.9mb 58f 51f
1:36 7 9 mph 1016.9mb 58f 51f
1:30 6 8 mph 1017mb 58f 50f
1:24 6 10 mph 1017.1mb 58f 50f
1:18 7 11 mph 1017mb 58f 50f
1:12 9 10 mph 1017mb 58f 50f
1:06 8 9 mph 1017mb 58f 50f
1:00 7 9 mph 1016.9mb 58f 50f
12:54 8 10 mph 1016.8mb 58f 50f
12:48 8 10 mph 1016.8mb 58f 51f
12:42 9 10 mph 1016.8mb 58f 51f
12:36 6 7 mph 1016.7mb 58f 50f
12:30 6 8 mph 1016.7mb 58f 51f
12:24 7 8 mph 1016.7mb 58f 51f
12:18 7 8 mph 1016.6mb 58f 51f
12:12 7 8 mph 1016.7mb 58f 51f
12:06 5 7 mph 1016.7mb 58f 51f
12:00 6 8 mph 1016.7mb 58f 51f
Fr 09/23 11:54 6 9 mph 1016.7mb 58f 51f
11:48 3 7 mph 1016.7mb 58f 51f
11:42 5 10 mph 1016.6mb 58f 51f
11:36 7 10 mph 1016.5mb 58f 52f
11:30 8 9 mph 1016.5mb 58f 52f
11:24 7 8 mph 1016.5mb 58f 52f
11:18 3 9 mph 1016.6mb 58f 51f
11:12 6 8 mph 1016.6mb 58f 52f
11:06 3 7 mph 1016.8mb 58f 52f
11:00 7 8 mph 1016.9mb 58f 52f
10:54 6 9 mph 1016.9mb 58f 52f
10:48 7 10 mph 1016.9mb 58f 52f
10:42 7 10 mph 1016.8mb 58f 52f
10:36 8 13 mph 1016.7mb 58f 52f
10:30 7 10 mph 1016.6mb 58f 52f
10:24 7 11 mph 1016.5mb 58f 53f
10:18 9 11 mph 1016.5mb 58f 53f
10:12 8 10 mph 1016.5mb 58f 53f
10:06 8 13 mph 1016.4mb 58f 53f
10:00 7 10 mph 1016.3mb 58f 53f
9:54 7 11 mph 1016.3mb 58f 53f
9:48 5 9 mph 1016.4mb 58f 53f
9:42 5 10 mph 1016.4mb 58f 53f
9:36 6 10 mph 1016.4mb 58f 53f
9:30 6 11 mph 1016.4mb 58f 53f
9:24 8 11 mph 1016.4mb 58f 54f
9:18 6 9 mph 1016.6mb 58f 54f
9:12 6 14 mph 1016.7mb 58f 54f
9:06 7 11 mph 1016.7mb 58f 54f
9:00 7 9 mph 1016.7mb 58f 54f
8:54 8 11 mph 1016.8mb 58f 54f
8:48  -  mph 1016.8mb 58f -
8:42  -  mph 1016.7mb 58f -
8:36  -  mph 1016.7mb 58f -
8:30 6 11 mph 1016.6mb 58f 54f
8:24 9 11 mph 1016.5mb 58f 54f
8:18 6 10 mph 1016.6mb 58f 54f
8:12 6 9 mph 1016.6mb 58f 54f
8:06 7 9 mph 1016.5mb 58f 54f
8:00 7 9 mph 1016.5mb 58f 55f
7:54 6 8 mph 1016.5mb 58f 55f
7:48 7 11 mph 1016.5mb 58f -
7:42 7 11 mph 1016.5mb 58f -
7:36 8 13 mph 1016.5mb 58f -
7:30 9 13 mph - 58f -
7:24 7 13 mph - 58f -
7:18 7 13 mph 1016.3mb 58f 55f
7:12 8 11 mph 1016.2mb 58f 55f
7:06 9 11 mph 1016.1mb 58f 55f
7:00 6 11 mph 1016.1mb 58f 55f
6:54 7 16 mph 1016.1mb 58f 56f
6:48 6 13 mph 1016.1mb 58f -
6:42 10 16 mph 1016mb 58f -
6:36 10 15 mph 1016mb 58f -
6:30 8 17 mph 1016mb 58f 56f
6:24 10 22 mph 1016mb 59f 56f
6:18 11 16 mph 1015.8mb 59f 56f
6:12 10 18 mph 1015.9mb 59f 56f
6:06 11 17 mph 1015.7mb 59f 57f
6:00 11 21 mph 1015.6mb 58f -
5:54 11 16 mph 1015.6mb 58f -
5:48 13 20 mph 1015.5mb 58f 57f
5:42 13 20 mph 1015.3mb 58f 57f
5:36 9 15 mph 1015.3mb 58f 57f
5:30 8 14 mph 1015.2mb 58f 57f
5:24 9 15 mph 1015.1mb 58f 57f
5:18 7 14 mph 1015mb 58f 58f
5:12 9 15 mph 1014.8mb 58f 58f
5:06 9 15 mph 1014.7mb 58f 57f
5:00 10 15 mph 1014.6mb 58f 58f
4:54 13 15 mph 1014.6mb 58f 57f
4:48 11 15 mph 1014.7mb 58f 57f
4:42 11 16 mph 1014.6mb 58f 57f
4:36 14 17 mph 1014.7mb 58f 57f
4:30 11 16 mph 1014.5mb 58f 57f
4:24 11 14 mph 1014.5mb 58f 56f
4:18 10 14 mph 1014.4mb 58f 56f
4:12 13 15 mph 1014.5mb 58f 56f
4:06 10 15 mph 1014.4mb 58f 56f
4:00 11 16 mph 1014.4mb 58f 56f
3:54 10 14 mph 1014.3mb 58f 56f
3:48 10 14 mph 1014.1mb 58f 56f
3:42 10 15 mph 1014.1mb 58f 56f
3:36 13 18 mph 1014.1mb 58f 56f
3:30 11 18 mph 1014.1mb 58f 56f
3:24 11 20 mph 1013.9mb 58f 56f
3:18 16 21 mph 1014mb 58f 56f
3:12 15 20 mph 1014.2mb 57f 56f
3:06 15 22 mph 1014.1mb 57f 56f
3:00 15 17 mph 1013.8mb 57f 56f
2:54 13 17 mph 1013.6mb 57f 56f
2:48 9 13 mph 1013.4mb 57f 56f
2:42 11 17 mph 1013.5mb 57f 56f
2:36 15 17 mph 1013.7mb 57f 56f
2:30 14 20 mph 1013.2mb 57f 56f
2:24 11 17 mph 1013.2mb 57f 56f
2:18 14 21 mph 1013mb 57f 56f
2:12 13 21 mph 1013.1mb 57f 56f
2:06 16 23 mph 1013.1mb 57f 56f
2:00 13 20 mph 1013.2mb 57f 57f
1:54 10 18 mph 1013.1mb 57f 57f
1:48 13 16 mph 1013.4mb 57f 57f
1:42 11 17 mph 1013.5mb 57f 57f
1:36 14 20 mph 1013.5mb 57f 58f
1:30 16 23 mph 1013.5mb 57f 58f
1:24 15 18 mph 1013.5mb 57f 60f
1:18 15 18 mph 1013.4mb 57f 61f
1:12 14 16 mph 1013.3mb 57f 61f
1:06 11 14 mph 1013mb 58f 61f
1:00 13 14 mph 1012.9mb 57f 61f
12:54 13 17 mph 1012.8mb 57f 61f
12:48 13 18 mph 1012.8mb 57f 61f
12:42 15 22 mph 1012.7mb 57f 61f
12:36 9 13 mph 1012.7mb 58f 63f
12:30 9 13 mph 1012.7mb 58f 64f
12:24 9 11 mph 1012.6mb 58f 64f
12:18 9 10 mph 1012.6mb 58f 64f
12:12 9 11 mph 1012.5mb 58f 64f
12:06 7 9 mph 1012.6mb 58f 64f
12:00 8 10 mph 1012.6mb 58f 64f
11:54 5 10 mph 1012.6mb 58f 64f
11:48 7 11 mph 1012.7mb 58f 64f
11:42 7 10 mph 1012.6mb 58f 63f
11:36 8 11 mph 1012.7mb 58f 63f
11:30 8 9 mph 1012.5mb 57f 63f
11:24 8 9 mph 1012.4mb 57f 63f
11:18 6 10 mph 1012.4mb 57f 64f
11:12 6 9 mph 1012.3mb 57f 63f
11:06 7 9 mph 1012.4mb 57f 63f
11:00 3 6 mph 1012.5mb 57f 63f
10:54 7 8 mph 1012.5mb 57f 63f
10:48 6 9 mph 1012.6mb 57f 63f
10:42 8 11 mph 1012.5mb 57f 63f
10:36 8 13 mph 1012.5mb 57f 63f
10:30 7 11 mph 1012.6mb 57f 63f
10:24 9 13 mph 1012.8mb 57f 63f
10:18 7 13 mph 1012.8mb 57f 63f
10:12 8 13 mph 1012.8mb 57f 64f
10:06 8 11 mph 1012.7mb 57f 63f
10:00 8 14 mph 1012.8mb 57f 63f
9:54 7 10 mph 1012.9mb 57f 64f
9:48 7 11 mph 1012.8mb 57f 64f
9:42 7 10 mph 1012.9mb 57f 64f
9:36 6 13 mph 1012.9mb 57f 64f
9:30 8 10 mph 1012.9mb 57f 64f
9:18 6 9 mph 1012.8mb 57f 64f
9:12 7 11 mph 1012.8mb 57f 64f
9:06 8 13 mph 1012.9mb 57f 64f
9:00 7 13 mph 1013mb 57f 63f
8:54 7 13 mph 1013.2mb 57f 64f
8:48 9 14 mph 1013.5mb 57f 64f
8:42 9 13 mph 1013.3mb 57f 65f
8:36 8 14 mph 1013.3mb 57f 66f
8:30 8 14 mph 1013.3mb 57f 66f
8:24 10 14 mph 1013.3mb 57f 66f
8:18 8 15 mph 1013.2mb 57f 67f
8:12 9 15 mph 1013.1mb 58f 67f
8:06 8 14 mph 1013mb 58f 67f
8:00 10 14 mph 1013mb 58f 67f
7:54 10 18 mph 1013mb 58f 67f
7:48 11 16 mph 1013mb - -
7:42 11 16 mph 1012.9mb 58f 67f
7:36 9 16 mph 1012.7mb 58f 67f
7:30 11 17 mph 1012.8mb 58f 67f
7:24 11 16 mph 1013mb 58f 67f
7:18 9 16 mph 1013mb 58f 67f
7:12 11 14 mph 1013mb 58f 67f
7:06 11 16 mph 1013.1mb 58f 67f
7:00 11 17 mph 1013.1mb 58f 67f
6:54 13 20 mph 1013.2mb 58f 67f
6:48 13 21 mph 1013.3mb 58f 67f
6:42 11 17 mph 1013.3mb 58f 67f
6:36 13 17 mph 1013.3mb 58f 67f
6:30 9 16 mph 1013.3mb 58f 67f
6:24 11 21 mph 1013.3mb 57f 67f
6:18 13 23 mph 1013.2mb 58f 67f
6:12 13 20 mph 1012.9mb 58f 67f
6:06 14 23 mph 1012.9mb 58f 68f
6:00 14 22 mph 1013mb 58f 68f
5:54 11 18 mph 1013mb 58f 69f
5:48 14 23 mph 1012.9mb 59f 69f
5:42 16 23 mph 1012.9mb 58f 69f
5:36 16 24 mph 1012.9mb 58f 70f
5:30 13 23 mph 1012.8mb 58f 70f
5:24 16 26 mph 1012.8mb 59f 70f
5:18 15 24 mph 1012.8mb 59f 69f
5:12 13 21 mph 1012.8mb 59f 69f
5:06 10 21 mph 1012.8mb 59f 69f
5:00 11 17 mph 1012.8mb 59f 69f
4:54 10 18 mph 1012.9mb 59f 69f
4:48 11 21 mph 1012.9mb 59f 69f
4:42 9 17 mph 1012.9mb 59f 69f
4:36 14 20 mph 1013.1mb 59f 69f
4:30 10 20 mph 1013.2mb 59f 69f
4:24 8 15 mph 1013.4mb 59f 69f
4:18 10 16 mph 1013.5mb 59f 69f
4:12 10 21 mph 1013.7mb 59f 69f
4:06 10 18 mph 1013.8mb 59f 69f
4:00 9 14 mph 1013.8mb 59f 69f
3:54 9 15 mph 1013.9mb 59f 69f
3:48 10 21 mph 1014mb 58f 69f
3:42 6 16 mph 1014mb 58f 69f
3:36 9 20 mph 1014.2mb 58f 69f
3:30 10 20 mph 1014.3mb 58f 69f
3:24 8 22 mph 1014.4mb 58f 69f
3:18 7 14 mph 1014.5mb 58f 69f
3:12 10 16 mph 1014.6mb 58f 69f
3:06 7 14 mph 1014.8mb 58f 69f
3:00 6 15 mph 1014.9mb 58f 68f
2:54 5 11 mph 1015mb 58f -
2:48 3 9 mph 1015.1mb 58f 66f
2:42 3 9 mph 1015.1mb 58f -
2:36 7 13 mph 1015.2mb 58f -
2:30 11 14 mph 1015.4mb 58f -
2:24 7 14 mph 1015.5mb 58f 60f
2:18 9 14 mph 1015.5mb 58f 60f
2:12 9 11 mph 1015.6mb 58f 60f
2:06 8 11 mph 1015.9mb 58f 60f
2:00 9 11 mph 1016mb 58f 60f
1:54 9 11 mph 1016.2mb 58f 60f
1:48 10 11 mph - - -
1:42 9 10 mph 1016.4mb 58f 60f
1:36 9 11 mph 1016.4mb 58f 60f
1:30 9 13 mph 1016.4mb 58f 60f
1:24 11 14 mph 1016.4mb 58f 60f
1:18 11 13 mph 1016.6mb 58f 60f
1:12 8 10 mph 1016.7mb 58f 60f
1:06 9 11 mph 1016.8mb 58f 60f
1:00 8 11 mph 1016.9mb 58f 60f
12:54 8 9 mph 1017mb 58f 61f
12:48 6 10 mph 1016.9mb 58f 60f
12:42 7 10 mph 1016.9mb 58f 61f
12:36 6 7 mph 1017mb 58f 63f
12:30 6 8 mph 1017mb 59f 61f
12:24 7 8 mph 1017.1mb 59f 61f
12:18 6 8 mph 1017.1mb 59f 61f
12:12 3 6 mph 1017.1mb 59f 61f
12:06 1 3 mph 1017.2mb 59f 62f
12:00  -  1 mph 1017.2mb 59f 61f
Do 09/22 11:54 1
mph
1017.1mb 59f 61f
11:48  -  2 mph 1017.2mb 59f 61f
11:42  -  1 mph 1017.3mb 59f 61f
11:36  -  2 mph 1017.5mb 59f 62f
11:30  -  2 mph 1017.5mb 59f 62f
11:24 2 3 mph 1017.6mb 59f 62f
11:18 3 5 mph 1017.6mb 59f 62f
11:12 3 5 mph 1017.7mb 59f 62f
11:06 3 5 mph 1017.8mb 59f 63f
11:00 2 3 mph 1017.9mb 59f 63f
10:54  -  1 mph - - -
10:48  -  2 mph 1018.1mb 60f 62f
10:42 2 5 mph 1018.2mb 60f 62f
10:36 2 5 mph 1018.2mb 60f 64f
10:30 1 5 mph 1018.2mb 60f 64f
10:24 5 7 mph 1018.2mb 60f -
10:18  -  mph 1018.2mb 60f 65f
10:06  -  mph 1018.4mb 59f 63f
10:00  -  5 mph 1018.5mb 59f 63f
9:54 5 6 mph 1018.5mb 59f 64f
9:48 2 5 mph 1018.4mb 60f 64f
9:42 3 5 mph 1018.4mb 60f -
9:36 2 3 mph 1018.4mb 60f -
9:30 1 5 mph 1018.5mb 60f -
9:24 3 5 mph 1018.6mb 60f -
9:18 3
mph
- 60f 63f
9:06 1 3 mph - 60f 63f
9:00 1 2 mph 1018.4mb 60f 64f
8:54 2
mph
1018.4mb 60f -
8:48 1 5 mph 1018.4mb 60f 63f
8:42 3 7 mph 1018.6mb 60f 63f
8:36 6 9 mph 1018.6mb 60f 63f
8:30 7 9 mph - - -
8:24  -  3 mph 1018.5mb 60f 64f
8:18 2 3 mph 1018.6mb 59f 64f
8:12 3
mph
- - -
8:06 2 3 mph 1018.5mb 59f 64f
8:00 2
mph
1018.3mb 59f 64f
7:54 2 5 mph 1018.3mb 59f 64f
7:48 5
mph
1018.4mb 59f -
7:42 1
mph
1018.3mb 59f -
7:36  -  2 mph 1018.3mb 60f -
7:30  -  1 mph - 60f 66f
7:24  -  mph - 60f 66f
7:18  -  1 mph 1018.3mb 60f -
7:12  -  2 mph 1018.2mb 60f -
7:06 2
mph
1018.2mb 60f -
7:00 1 2 mph - 60f 65f
6:54 1 2 mph - 60f 65f
6:48 3 5 mph 1018.2mb 60f -
6:42 3 5 mph 1018.2mb 60f -
6:36  -  1 mph 1018.2mb 60f -
6:30  -  2 mph 1018.2mb 60f 67f
6:24 2
mph
1018.2mb 60f 67f
6:18 2 3 mph 1018.2mb 60f 66f
6:12 2 3 mph 1018.3mb 60f 64f
6:06 5 6 mph 1018.3mb 60f 64f
6:00 5
mph
1018.2mb 60f 63f
5:54 5 6 mph 1018.2mb 60f 65f
5:48 2 3 mph 1018.2mb 60f 69f
5:42 2
mph
1018.2mb 60f 68f
5:36 1
mph
1018.2mb 60f 68f
5:30  -  2 mph 1018.2mb 60f 68f
5:24 2 3 mph 1018.3mb 60f 67f
5:18 3 5 mph 1018.3mb 60f 66f
5:12 2 6 mph 1018.3mb 60f 69f
5:06 5 6 mph 1018.3mb 59f 68f
5:00 5 6 mph 1018.3mb 59f 66f
4:54 3 5 mph 1018.3mb 59f 68f
4:48 2 5 mph 1018.2mb 59f 66f
4:42 3 6 mph 1018.3mb 59f 67f
4:36 3 6 mph 1018.2mb 59f 66f
4:30 2 3 mph 1018.2mb 59f 67f
4:24 2 6 mph 1018.3mb 59f 66f
4:18 3 8 mph 1018.2mb - 66f
4:12 3 5 mph 1018.1mb - 69f
4:06 6 7 mph 1018.1mb - 67f
4:00 6 7 mph 1018.2mb 60f 66f
3:54 7 9 mph 1018.2mb 60f 64f
3:48 7 8 mph 1018.3mb 60f 65f
3:42 6 8 mph 1018.2mb 59f 66f
3:36 7 9 mph 1018.1mb 59f 66f
3:30 8 9 mph 1018.2mb 59f 64f
3:24 8 9 mph 1018.2mb 59f 64f
3:18 7 9 mph 1018.2mb 59f 64f
3:12 7 9 mph 1018.3mb 59f 65f
3:06 6 8 mph 1018.3mb 59f 67f
3:00 8 10 mph 1018.3mb 59f 65f
2:54 5 9 mph 1018.4mb 59f 67f
2:48 8 10 mph 1018.4mb 59f 64f
2:42 7 8 mph 1018.5mb 59f 69f
2:36 3 5 mph 1018.6mb 58f 71f
2:30 6 8 mph 1018.7mb 58f 67f
2:24 7 9 mph 1018.8mb 58f 68f
2:18 6 10 mph 1018.8mb 58f 67f
2:12 7 9 mph 1018.8mb 58f 67f
2:06 5 9 mph 1018.8mb 58f 70f
2:00 9 11 mph 1018.8mb 58f 69f
1:54 8 11 mph 1018.8mb 58f 67f
1:48 7 9 mph 1018.9mb 58f 68f
1:42 6 8 mph 1018.9mb 58f 68f
1:36 6 7 mph 1019.1mb 58f 68f
1:30 6 8 mph 1019mb 58f 73f
1:24 6 8 mph 1019mb 58f 72f
1:18 6 9 mph 1019mb 58f 73f
1:12 7 8 mph 1019.2mb 58f 72f
1:06 7 10 mph 1019.3mb 58f 73f
1:00 8 10 mph 1019.4mb 58f 71f
12:54 10 11 mph 1019.4mb 59f 72f
12:48 6 9 mph 1019.4mb 59f 72f
12:42 5 7 mph 1019.4mb 59f 71f
12:36 6 10 mph 1019.5mb 59f 71f
12:30 3 8 mph 1019.5mb 59f 70f
12:24 5 7 mph 1019.5mb 59f 71f
12:18 6 7 mph 1019.4mb 59f 71f
12:12 6 9 mph 1019.5mb 59f 71f
12:06 7 9 mph 1019.6mb 59f 70f
12:00 7 9 mph 1019.6mb 59f 70f
11:54 8 10 mph 1019.6mb 59f 70f
11:48 8 10 mph 1019.7mb 59f 70f
11:42 7 9 mph 1019.8mb 59f 70f
11:36 6 7 mph 1019.9mb 59f 70f
11:30 6 9 mph 1020mb 59f 70f
11:24 3 8 mph 1020mb 59f 69f
11:18 5 8 mph 1020.1mb 59f 69f
11:12 6 10 mph 1020.1mb 58f 68f
11:06 3 8 mph 1020.2mb 58f 68f
11:00 7 10 mph 1020.1mb 58f 68f
10:54 7 8 mph 1020.1mb 58f 67f
10:48 6 8 mph 1020.1mb 58f 67f
10:42 5 8 mph 1020.2mb 58f 66f
10:36 5 6 mph 1020.3mb 58f 67f
10:30 5 6 mph 1020.3mb 58f 66f
10:24 6 9 mph 1020.3mb 58f 67f
10:18 8 11 mph 1020.4mb 58f 68f
10:12 9 11 mph 1020.3mb 58f 67f
10:06 10 11 mph 1020.3mb 58f 67f
10:00 8 10 mph 1020.4mb 58f 67f
9:54 6 9 mph 1020.5mb 58f 66f
9:48 8 9 mph 1020.4mb 58f 67f
9:42 8 10 mph 1020.4mb 58f 66f
9:36 7 9 mph 1020.5mb 58f 66f
9:30 6 7 mph 1020.5mb 58f 65f
9:24 6 8 mph 1020.5mb 58f 65f
9:18 6 8 mph 1020.5mb 58f 65f
9:12 6 7 mph 1020.6mb 58f 65f
9:06 6 7 mph 1020.6mb 58f 64f
9:00 6 7 mph 1020.5mb 58f 64f
8:54 5 6 mph 1020.4mb 58f 63f
8:48 5 7 mph 1020.4mb 58f 64f
8:42 6 8 mph 1020.3mb 58f 64f
8:36 7 9 mph 1020.3mb 58f 64f
8:30 8 9 mph 1020.3mb 58f 63f
8:24 7 9 mph 1020.2mb 58f 63f
8:18 7 9 mph 1020.2mb 58f 63f
8:12 7 9 mph 1020.3mb 58f 63f
8:06 7 9 mph 1020.3mb 58f 62f
8:00 8 10 mph 1020.3mb 58f 62f
7:54 7 10 mph 1020.2mb 58f 62f
7:48 8 9 mph 1020.2mb 58f 62f
7:42 7 8 mph 1020.1mb 58f 61f
7:36 5 6 mph 1020.1mb 58f 63f
7:30 6 7 mph 1020.1mb 58f 63f
7:24 6 8 mph 1020mb 58f 63f
7:18 6 8 mph 1020mb 58f 63f
7:12 3 6 mph 1019.9mb 58f 63f
7:06 5 6 mph 1019.9mb 58f 63f
7:00 5 6 mph 1019.8mb 58f 63f
6:54 5 6 mph 1019.8mb 58f 62f
6:48 5 6 mph 1019.7mb 58f 62f
6:42 3 5 mph 1019.7mb 58f 64f
6:36 5 7 mph 1019.6mb 58f 64f
6:30 6 8 mph 1019.6mb 58f 65f
6:24 3 9 mph 1019.5mb 58f 64f
6:18 6 10 mph 1019.4mb 58f 64f
6:12 7 13 mph 1019.3mb 58f 64f
6:06 5 10 mph 1019.3mb 58f 64f
6:00 7 11 mph 1019.3mb 58f 64f
5:54 7 11 mph 1019.2mb 58f 65f
5:48 7 14 mph 1019.2mb 58f 66f
5:42 7 14 mph 1019.1mb 58f 66f
5:36 6 13 mph 1019mb 58f 66f
5:30 6 9 mph 1019mb 58f 65f
5:24 7 9 mph 1018.9mb 58f 65f
5:18 7 10 mph 1018.9mb 58f 66f
5:12 8 11 mph 1018.9mb 58f 66f
5:06 7 11 mph 1018.9mb 58f 66f
5:00 7 11 mph 1018.9mb 58f 66f
4:54 8 10 mph 1018.9mb 58f 66f
4:48 7 11 mph 1018.9mb 58f 66f
4:42 6 11 mph 1018.8mb 58f 67f
4:36 8 13 mph 1018.8mb 58f 68f
4:30 7 13 mph 1018.8mb 58f 67f
4:24 8 13 mph 1018.8mb 58f 67f
4:18 8 14 mph 1018.8mb 58f 67f
4:12 8 11 mph 1018.9mb 58f 67f
4:06 7 11 mph 1018.9mb 58f 66f
4:00 9 13 mph 1018.6mb 58f 66f
3:54 8 13 mph 1018.4mb 58f 66f
3:48 8 13 mph 1018.3mb 58f -
3:42 7 11 mph 1018.4mb 58f 67f
3:36 8 13 mph 1018.3mb 58f 67f
3:30 8 13 mph 1018.2mb 58f 67f
3:24 8 14 mph 1018.2mb 58f 67f
3:18 9 14 mph 1018.2mb 58f 67f
3:12 10 13 mph 1018.1mb 58f 67f
3:06 8 11 mph 1018.1mb 58f 66f
3:00 8 10 mph 1018.1mb 58f 66f
2:54 7 10 mph 1018.1mb 58f 66f
2:48 8 11 mph 1018.1mb 58f 66f
2:42 8 11 mph 1018.1mb 58f 67f
2:36 9 11 mph 1018.1mb 58f 67f
2:30 9 11 mph 1018.1mb 57f 67f
2:24 9 14 mph 1018.1mb 58f 67f
2:18 8 14 mph 1018.1mb 58f 67f
2:12 9 13 mph 1018.1mb 58f 68f
2:06 9 13 mph 1018.2mb 58f 68f
2:00 10 14 mph 1018.2mb 57f 68f
1:54 9 13 mph 1018.2mb 57f 68f
1:48 9 13 mph 1018.2mb 58f -
1:42 9 14 mph 1018.1mb 58f -
1:36 11 15 mph 1018.1mb 58f -
1:30 9 13 mph 1018.1mb 58f 68f
1:24 8 17 mph 1018mb 58f 69f
1:18 10 14 mph 1017.9mb 58f 68f
1:12 9 15 mph 1017.9mb 58f 68f
1:06 10 14 mph 1017.9mb 58f 68f
1:00 9 14 mph 1017.9mb 58f 68f
12:54 10 14 mph 1017.8mb 58f 68f
12:48 11 14 mph 1017.8mb 58f 68f
12:42 9 14 mph 1017.8mb 57f 68f
12:36 10 14 mph 1017.8mb 57f 68f
12:30 8 13 mph 1017.8mb 57f 68f
12:24 9 11 mph 1017.8mb 57f 68f
12:18 9 11 mph 1017.7mb 57f 68f
12:12 10 13 mph 1017.7mb 58f 68f
12:06 10 13 mph 1017.7mb 58f 68f
12:00 9 13 mph 1017.7mb 58f 68f
Mi 09/21 11:54 9 13 mph 1017.6mb 58f 68f
11:48 9 14 mph 1017.6mb 58f 68f
11:42 8 14 mph 1017.6mb 58f 68f
11:36 10 13 mph 1017.6mb 58f 69f
11:30 10 14 mph 1017.6mb 58f 69f
11:24 8 13 mph 1017.7mb 58f 69f
11:18 8 11 mph 1017.6mb 58f 69f
11:12 7 10 mph 1017.5mb 58f 69f
11:06 9 15 mph 1017.5mb 58f 70f
11:00 9 14 mph 1017.5mb 58f 70f
10:54 7 14 mph 1017.5mb 58f 69f
10:48 9 13 mph 1017.6mb 58f 69f
10:42 9 14 mph 1017.6mb 58f 69f
10:36 8 13 mph 1017.6mb 58f 69f
10:30 9 15 mph 1017.5mb 58f -
10:24 10 14 mph 1017.4mb 58f -
10:18 11 15 mph 1017.3mb 58f 69f
10:12 13 15 mph 1017.3mb 58f 69f
10:06 10 14 mph 1017.3mb 58f 69f
10:00 10 14 mph 1017.4mb 58f 69f
9:54 8 13 mph 1017.4mb 58f 69f
9:48 8 11 mph - 59f 69f
9:42 8 14 mph - 59f 70f
9:36 9 15 mph - 59f 70f
9:30 11 16 mph 1017.3mb 59f -
9:24 11 15 mph 1017.3mb 59f -
9:18 11 16 mph 1017.3mb 59f 70f
9:12 9 16 mph 1017.4mb 59f 70f
9:06 13 17 mph 1017.4mb 58f 69f
9:00 11 17 mph 1017.4mb 58f 69f
8:54 11 16 mph 1017.4mb 59f 69f
8:48 11 16 mph 1017.4mb 59f 69f
8:42 11 17 mph 1017.3mb 59f 70f
8:36 11 17 mph 1017.3mb 59f 70f
8:30 13 17 mph 1017.3mb 59f 70f
8:24 10 17 mph 1017.3mb 59f 70f
8:18  -  mph 1017.3mb 59f 70f
8:12  -  mph 1017.3mb 59f 70f
8:06  -  mph 1017.2mb 59f 70f
8:00 11 16 mph 1017.1mb 59f 70f
7:54 10 15 mph 1017.1mb 59f 70f
7:48 8 14 mph 1017.1mb 59f -
7:42 8 13 mph 1017.1mb 59f -
7:36 7 10 mph 1017.1mb 59f -
7:30 7 11 mph 1017.2mb 59f 71f